Ingenio La Esperanza, Argentina
Current Conditions -  °F | °C
As of 1:00 PM on Monday 24 Nov 2014 (Local Time) from SASJ Reporting Station
Few Clouds Few Clouds  
Wind Chill: 84°   Ceiling: Unl
Heat Index: 85°   Visibility: 6mi
Dew Point: 63°   Wind: 6mph
Humidity: 48%   Direction: 110°ESE
Pressure: 29.74"   Gusts: NA
Location:  24.22°S, 64.85°W
Report Text: SASJ 241600Z 11005KT 030V180 9999 FEW03029/17 Q1007
Loading
Personal Weather Stations






























Interactive Weather Map New forecast layout! Learn more

10-Day Weather Forecast

Advertisements
Track Severe Weather on mobile